Latest Observation

42 Stations

15 Minute Data | America/Los_Angeles
as of 5/2/26 6:41 PM PDT
Station Date Time Temp (°F) RH (%) Dew Pt (°F) Wind Spd (mph) Wind Dir (°) Wind Gust (mph) Latest Rain (In) Daily Rain (In) Daily Min Temp (°F) Daily Max Temp (°F) Daily Max Wind (mph)
Elk Mt. Farm 5/2/26 1830 69.8   7.9 - - - - - - - 47.2   3.0 78.4   4.9 -
Upper Lake 5/2/26 1830 68.8   9.5 49   5 48.8   5.8 2.2 SE | 127 5.0   3.8 0.00 0.00 47.0   3.2 76.6   4.7 14.8   4.2
Scotts Valley 5/2/26 1830 66.9   9.2 56   12 50.9   1.6 2.1 SSW | 209 5.5   3.2 0.00 0.00 44.6   4.2 77.2   6.2 13.3   4.6
Scotts Valley-South (Bella Vista) 5/2/26 1830 64.9   11.9 53   13 47.5   3.0 4.5 SW | 227 8.7   1.9 0.00 0.00 47.2   1.8 76.8   5.7 15.3   4.0
Kelseyville 5/2/26 1830 67.6   10.1 48   11 47.5   2.2 5.0 SW | 227 10.1   0.9 0.00 0.00 48.8   3.9 78.9   4.2 16.9   4.2
Kelseyville Remote 5/2/26 1830 68.4   9.6 40   9 43.5   1.7 - - - 0.00 0.00 49.7   5.1 79.8   3.9 -
Kelseyville (Clark Drive) 5/2/26 1830 68.3   10.0 - - - - - 0.00 0.00 48.0   4.1 79.6   4.2 -
Kelsey Bench (Oaklea) 5/2/26 1830 65.0   11.4 47   16 44.4   0.4 2.7 SW | 214 10.4   0.5 0.00 0.00 50.0   2.3 77.4   4.0 18.7   5.8
Smith Lane (Kelseyville-South) 5/2/26 1830 66.3   9.5 49   12 46.7   1.2 7.3 SSW | 194 12.1   3.4 0.00 0.00 48.3   4.0 78.4   4.4 19.4   6.7
Bell Hill-West 5/2/26 1830 64.9   11.7 61   18 51.1   1.4 8.5 SSW | 197 13.8   5.4 0.00 0.00 48.7   3.7 77.0   4.7 18.5   6.4
High Valley Ridgeline (Brassfield) 5/2/26 1830 64.8   9.8 46   15 43.8   1.8 4.8 WSW | 251 7.4   4.4 0.00 0.00 53.3   8.1 75.3   2.5 15.2   2.7
Wight Way (Adobe Creek) 5/2/26 1800 68.2   10.6 51   17 49.5   1.5 2.3 NW | 311 7.4   0.2 0.00 0.00 46.7   3.8 78.9   4.6 11.9   1.8
Ridgeline Top (Brassfield) 5/2/26 1830 65.4   10.6 - - - - - - - 53.8   6.5 73.7   6.2 -
Ridgeline Low (Brassfield) 5/2/26 1830 65.7   10.9 - - - - - - - 53.4   0.5 76.3   2.5 -
Long Valley (Shannon) 5/2/26 1800 73.4   6.1 36   1 44.8   6.2 4.3 ESE | 115 9.3   2.9 0.00 0.00 49.1   5.9 79.4   2.9 14.8   5.3
High Valley Winery 5/2/26 1830 69.5   6.3 42   11 45.6   2.2 4.3 SSW | 207 8.1   1.1 0.00 0.00 46.9   3.8 76.4   3.5 13.0   0.7
Round Mtn Rd. 5/2/26 1830 68.2   7.7 - - - - - - - 50.0   0.3 75.9   3.8 -
Circle O 5/2/26 1830 67.7   8.3 - - - - - - - 48.5   2.6 76.7   3.4 -
Robertsbridge Vineyards 5/2/26 1830 66.4   11.5 53   19 48.7   1.3 - - - - - 48.0   3.4 79.4   4.2 -
Urgency Vineyard 5/2/26 1830 67.8   8.4 40   7 42.6   2.5 2.9 ESE | 110 8.4   0.8 0.00 0.00 45.8   1.5 75.5   4.8 13.5   3.1
Red Hills (Beckstoffer) 5/2/26 1830 67.4   9.0 46   12 45.9   0.1 - - - 0.00 0.00 42.2   2.4 75.3   6.5 -
Winters (Shannon) 5/2/26 1830 65.5   9.8 44   14 42.8   1.2 5.6 ESE | 120 10.4   2.1 0.00 0.00 42.7   2.6 71.5   7.6 18.3   7.1
Secret Pond (Shannon) 5/2/26 1830 65.8   9.0 48   20 45.4   6.2 1.5 ESE | 122 4.3   5.9 0.00 0.00 44.9   1.7 73.4   5.7 13.7   3.4
Rolling Knolls (Shannon) 5/2/26 1830 67.6   10.1 47   15 46.6   1.0 2.9 S | 172 6.5   0.4 0.00 0.00 46.1   4.6 75.2   6.9 14.0   5.2
Lower Lake 5/2/26 1830 68.0   10.4 47   19 47.2   4.3 1.4 ENE | 61 5.8   5.3 0.00 0.00 51.3   1.6 74.2   7.9 19.4   6.7
Adamson Ranch 5/2/26 1830 67.0   9.5 54   16 50.1   1.0 3.2 SSE | 167 6.4   1.8 0.00 0.00 47.2   4.4 75.1   7.0 15.3   4.8
Middletown (Diamond D) 5/2/26 1830 63.0   12.5 66   18 51.6   3.0 1.9 SW | 216 4.4   8.8 0.00 0.00 48.0   2.8 75.5   8.4 13.2   2.8
Middletown-West (Domaine Helena) 5/2/26 1830 60.6   12.7 70   18 50.7   4.0 10.1 SW | 225 15.7   0.4 0.00 0.00 44.4   2.9 75.0   6.8 23.7   7.8
Middletown-South 5/2/26 1830 64.8   10.0 58   17 49.6   0.4 2.0 SSE | 156 7.7   8.0 0.00 0.00 47.4   1.3 75.5   7.0 11.4   6.0
Jim Davis (Langtry) 5/2/26 1830 66.4   11.7 58   23 51.1   3.3 6.3 ESE | 106 10.8   1.6 0.00 0.00 49.7   0.5 72.9   8.9 16.2   2.7
Napa Valley Basin 5/2/26 1830 67.0   11.7 64   25 54.4   3.0 5.9 SW | 225 10.3   0.4 0.00 0.00 46.0   2.9 74.1   8.4 15.8   4.8
Lower Bohn 5/2/26 1830 66.1   12.8 59   19 51.4   1.1 5.4 S | 182 13.4   4.9 0.00 0.00 43.1   2.7 73.6   9.8 16.7   4.5
Upper Bohn-North 5/2/26 1830 65.6   13.8 59   19 50.8   1.9 3.6 SE | 136 8.8   3.7 0.00 0.00 49.9   1.2 74.0   8.9 13.6   3.1
Snell Peak Blk#9 5/2/26 1830 64.0   13.3 62   26 50.9   2.5 5.7 S | 182 10.2   0.6 0.00 0.00 50.3   1.6 72.3   10.4 15.0   5.3
Coyote Lake West 5/2/26 1830 66.2   13.2 62   24 52.9   1.0 4.4 SSW | 200 9.1   1.3 0.00 0.00 50.2   1.2 72.3   9.1 17.5   6.4
Coyote Lake Northeast 5/2/26 1830 66.3   12.7 65   25 54.1   1.8 - - - - - 50.4   1.0 74.0   8.3 -
Coyote Lake East 5/2/26 1830 67.8   12.5 61   21 54.1   0.2 - - - - - 48.3   3.0 73.6   8.8 -
Morgan Valley 5/2/26 1830 62.7   10.9 67   31 51.7   6.5 2.9 S | 175 6.2   2.7 0.00 0.00 53.5   5.9 71.3   5.8 14.9   1.0
Mine Pit North 5/2/26 1830 65.3   7.7 64   15 53.0   0.0 7.4 SSW | 196 11.2   1.9 - - 52.2   1.4 74.4   6.0 18.3   3.0
Mine Pit South 5/2/26 1830 66.0   11.0 54   24 49.0   5.9 5.7 S | 186 9.7   0.0 0.00 0.00 50.7   6.7 74.8   7.6 16.8   6.3
Cow Mountain 5/2/26 1830 57.0   7.8 - - 8.1 WSW | 248 11.4   10.3 0.00 0.00 53.4   8.9 68.5   3.3 16.4   7.7
Ukiah-SE (Ruddick) 5/2/26 1830 65.7   13.5 61   20 51.8   1.7 11.5 SSE | 163 16.6   3.9 0.00 0.00 50.3   5.1 71.7   14.8 22.2   7.5
Max     73.4 70 54.4 11.5 - 16.6 0.00 0.00 53.8 79.8 23.7
Avg     66.3 54 48.9 4.7 - 9.2 0.00 - - - -
Min     57.0 36 42.6 1.4 - 4.3 0.00 0.00 42.2 68.5 11.4